Olympia Regional Airport Olympia US
ICAO: KOLM
IATA: OLM
Category: Medium
Scheduled Services: No

Elevation: 209 ft
TransAlt. 18000 ft.

Airport Communications:
SEATTLE APP/DEP:121.1
ASOS:135.725
ATIS:135.375
CTAF:124.4
GND:121.6
TWR:124.4
UNICOM:122.95

KOLM Zoom In..

Runways:

(A) RW 08 length 4157 ft width 150 ft
---- / hdg 85

(B) RW 17 length 5500 ft width 150 ft
ILS 111.90 / hdg 172

(C) RW 26 length 4157 ft width 150 ft
---- / hdg 265

(D) RW 35 length 5500 ft width 150 ft
---- / hdg 352

Location; KOLM
Day. 21 / Time. 14.54 Zulu
* Altimeter: 30.08
* Temperature: 11° c. 51.8°f.
* Wind from: 000° Speed 00 kn.
Dewpoint: 08° c.
Visibility: 10 Statute Miles.
Clouds: Overcast 1800 ft.

KOLM 211454Z 00000KT 10SM OVC018 11/08 A3008 RMK AO2 SLP185 T01060083 53003


Wind - Calm.

 
 
jpsmedia.com for Web Design SOUNDCLOUD worldairports.se 2018   terms of use